ESNZ

Östersund Airport

Östersund, Sweden
METAR ESNZ 250020Z AUTO 26005KT 9999 -DZ FEW028/// 04/01 Q0991
Observed Flight Rules
Apr-25 @ 00:20 UTC (14 minutes ago) Visual Flight Rules
Wind Visibility Clouds Conditions
260° at 5 knots 10,000+ meters
  • Few at 2,800' AGL
  • Light Drizzle
Temperatures Readings
Current 4°C / 39°F
Dewpoint 1°C / 34°F
Humidity 81%
Altimeter 29.26" Hg
Pressure 991 hPa
Elevation 370
METAR ESNZ 250020Z AUTO 26005KT 9999 -DZ FEW028/// 04/01 Q0991
Observed Flight Rules
Apr-25 @ 00:20 UTC
(14 minutes ago)
VFR
Wind Visibility
260° at 5 knots 10,000+ meters
Clouds
  • Few at 2,800' AGL
Conditions
  • Light Drizzle
Temperature Dewpoint
4°C / 39°F 1°C / 34°F
Humidity Altimeter Pressure
81% 29.26" Hg 991 hPa